createdAt,value
2023-05-02T00:02:28.490Z,8.4
2023-05-02T00:08:14.547Z,9.3
2023-05-02T00:13:59.369Z,8.2
2023-05-02T00:19:45.398Z,8.9
2023-05-02T00:25:30.787Z,9.1
2023-05-02T00:31:15.795Z,9.3
2023-05-02T00:37:00.509Z,8.9
2023-05-02T00:42:45.277Z,8.4
2023-05-02T00:48:30.214Z,8.7
2023-05-02T00:54:14.841Z,8.3
2023-05-02T01:00:00.958Z,10.2
2023-05-02T01:05:48.323Z,8.4
2023-05-02T01:11:38.858Z,8.9
2023-05-02T01:17:25.231Z,8.2
2023-05-02T01:23:12.642Z,7.7
2023-05-02T01:29:07.325Z,7.7
2023-05-02T01:34:53.383Z,7.8
2023-05-02T01:40:40.554Z,7.1
2023-05-02T01:46:26.060Z,6.8
2023-05-02T01:52:14.017Z,7.9
2023-05-02T01:57:59.717Z,8.5
2023-05-02T02:03:45.322Z,7.7
2023-05-02T02:09:30.924Z,7.4
2023-05-02T02:15:20.424Z,7.3
2023-05-02T02:21:05.916Z,7.9
2023-05-02T02:26:50.752Z,7.7
2023-05-02T02:32:35.602Z,8
2023-05-02T02:38:24.157Z,7.9
2023-05-02T02:44:17.117Z,10.5
2023-05-02T02:50:06.780Z,8.1
2023-05-02T02:55:55.588Z,9.2
2023-05-02T03:01:43.564Z,10
2023-05-02T03:07:30.796Z,10.5
2023-05-02T03:13:15.469Z,9.7
2023-05-02T03:19:00.293Z,10.8
2023-05-02T03:24:44.967Z,10.3
2023-05-02T03:30:29.546Z,9
2023-05-02T03:36:14.600Z,10.3
2023-05-02T03:41:59.118Z,10.3
2023-05-02T03:47:43.912Z,11.5
2023-05-02T03:53:28.608Z,11.9
2023-05-02T03:59:13.285Z,14.4
2023-05-02T04:04:57.972Z,14.2
2023-05-02T04:10:42.868Z,14.3
2023-05-02T04:16:27.658Z,13.9
2023-05-02T04:22:12.315Z,14.2
2023-05-02T04:27:57.024Z,15.3
2023-05-02T04:33:42.025Z,15.5
2023-05-02T04:39:27.756Z,16.4
2023-05-02T04:45:12.987Z,15.1
2023-05-02T04:50:57.849Z,14.7
2023-05-02T04:56:42.719Z,16.2
2023-05-02T05:02:27.982Z,14.8
2023-05-02T05:08:12.543Z,16.4
2023-05-02T05:13:57.350Z,15.4
2023-05-02T05:19:42.237Z,15.4
2023-05-02T05:25:26.944Z,14.8
2023-05-02T05:31:19.325Z,14.5
2023-05-02T05:37:03.903Z,13.3
2023-05-02T05:42:48.655Z,13.9
2023-05-02T05:48:33.589Z,13
2023-05-02T05:54:19.885Z,12.9
2023-05-02T06:00:05.771Z,14.3
2023-05-02T06:05:50.344Z,14.2
2023-05-02T06:11:35.399Z,13.8
2023-05-02T06:17:20.140Z,13.7
2023-05-02T06:23:05.691Z,12.8
2023-05-02T06:28:50.885Z,14.6
2023-05-02T06:34:35.540Z,13.8
2023-05-02T06:40:21.048Z,14.2
2023-05-02T06:46:07.724Z,13.3
2023-05-02T06:51:52.491Z,12.7
2023-05-02T06:57:37.168Z,14.6
2023-05-02T07:03:22.791Z,14.5
2023-05-02T07:09:07.684Z,14.7
2023-05-02T07:14:52.414Z,16.2
2023-05-02T07:20:37.063Z,13.8
2023-05-02T07:26:21.864Z,15.3
2023-05-02T07:32:07.426Z,15.3
2023-05-02T07:37:52.760Z,13.9
2023-05-02T07:43:37.381Z,13.1
2023-05-02T07:49:22.035Z,13.3
2023-05-02T07:55:06.961Z,14.4
2023-05-02T08:00:51.820Z,11.4
2023-05-02T08:06:37.801Z,11.1
2023-05-02T08:12:22.557Z,11.9
2023-05-02T08:18:08.356Z,10.8
2023-05-02T08:23:53.080Z,10.7
2023-05-02T08:29:38.020Z,9.4
2023-05-02T08:35:22.718Z,10
2023-05-02T08:41:12.564Z,9.3
2023-05-02T08:47:04.144Z,8.9
2023-05-02T08:52:49.295Z,8.8
2023-05-02T08:58:34.136Z,8.2
2023-05-02T09:04:18.999Z,9.7
2023-05-02T09:10:03.880Z,10.9
2023-05-02T09:15:53.521Z,9.1
2023-05-02T09:21:43.216Z,8.9
2023-05-02T09:27:28.258Z,8.7
2023-05-02T09:33:13.056Z,8.2
2023-05-02T09:39:02.498Z,8.1
2023-05-02T09:44:47.409Z,8.3
2023-05-02T09:50:41.937Z,7.4
2023-05-02T09:56:28.485Z,8.3
2023-05-02T10:02:13.388Z,7
2023-05-02T10:07:58.037Z,7.8
2023-05-02T10:13:43.936Z,7.6
2023-05-02T10:19:33.144Z,7.2
2023-05-02T10:25:17.941Z,7.7
2023-05-02T10:31:03.910Z,6.9
2023-05-02T10:36:49.178Z,8.5
2023-05-02T10:42:34.056Z,8.3
2023-05-02T10:48:25.629Z,7.1
2023-05-02T10:54:26.371Z,7.8
2023-05-02T11:00:21.818Z,6.7
2023-05-02T11:06:12.760Z,6.4
2023-05-02T11:11:58.161Z,6.8
2023-05-02T11:17:56.698Z,5.8
2023-05-02T11:23:41.261Z,8.2
2023-05-02T11:29:36.854Z,6.7
2023-05-02T11:35:22.525Z,8
2023-05-02T11:41:07.608Z,7.9
2023-05-02T11:46:52.516Z,8.1
2023-05-02T11:52:40.239Z,6.5
2023-05-02T11:58:25.751Z,6.9
2023-05-02T12:04:11.639Z,5.4
2023-05-02T12:09:59.237Z,5.2
2023-05-02T12:15:44.297Z,5.9
2023-05-02T12:21:29.207Z,6.2
2023-05-02T12:27:17.612Z,5.4
2023-05-02T12:33:05.982Z,5
2023-05-02T12:38:56.766Z,6.6
2023-05-02T12:44:45.228Z,6.3
2023-05-02T12:50:41.764Z,5.9
2023-05-02T12:56:26.465Z,7
2023-05-02T13:02:10.964Z,5.5
2023-05-02T13:07:55.723Z,6.2
2023-05-02T13:13:40.565Z,7.6
2023-05-02T13:19:25.927Z,7.3
2023-05-02T13:25:12.024Z,8.1
2023-05-02T13:30:57.322Z,5.6
2023-05-02T13:36:42.244Z,7.3
2023-05-02T13:42:26.900Z,4.9
2023-05-02T13:48:12.332Z,6.4
2023-05-02T13:53:57.117Z,5.9
2023-05-02T13:59:42.627Z,4.8
2023-05-02T14:05:28.073Z,6.2
2023-05-02T14:11:12.876Z,6.5
2023-05-02T14:16:57.548Z,5.3
2023-05-02T14:22:42.095Z,4.7
2023-05-02T14:28:26.559Z,5.2
2023-05-02T14:34:12.542Z,3.8
2023-05-02T14:39:58.501Z,5.1
2023-05-02T14:45:43.195Z,3.9
2023-05-02T14:51:27.879Z,3.8
2023-05-02T14:57:13.215Z,4.4
2023-05-02T15:02:58.713Z,4.5
2023-05-02T15:08:43.377Z,4.1
2023-05-02T15:14:28.953Z,4.1
2023-05-02T15:20:15.017Z,3.3
2023-05-02T15:25:59.839Z,3.3
2023-05-02T15:31:44.669Z,5.1
2023-05-02T15:37:29.145Z,4.1
2023-05-02T15:43:14.162Z,3
2023-05-02T15:48:58.727Z,3.1
2023-05-02T15:54:43.424Z,3.5
2023-05-02T16:00:28.226Z,3.1
2023-05-02T16:06:13.031Z,2.7
2023-05-02T16:11:57.756Z,3.8
2023-05-02T16:17:42.392Z,3.3
2023-05-02T16:23:27.521Z,2.7
2023-05-02T16:29:12.173Z,4.1
2023-05-02T16:34:57.003Z,5.1
2023-05-02T16:40:41.694Z,2.5
2023-05-02T16:46:26.449Z,3.5
2023-05-02T16:52:11.094Z,3.4
2023-05-02T16:57:55.899Z,3.7
2023-05-02T17:03:40.853Z,3.3
2023-05-02T17:09:25.688Z,4.9
2023-05-02T17:15:10.923Z,2.1
2023-05-02T17:20:55.615Z,6
2023-05-02T17:26:40.441Z,4.7
2023-05-02T17:32:25.252Z,6
2023-05-02T17:38:10.300Z,19
2023-05-02T17:43:55.038Z,14.8
2023-05-02T17:49:40.395Z,16.6
2023-05-02T17:55:25.220Z,16.7
2023-05-02T18:01:14.912Z,14
2023-05-02T18:06:59.682Z,14.7
2023-05-02T18:12:44.215Z,20
2023-05-02T18:18:29.236Z,58.8
2023-05-02T18:24:14.722Z,72
2023-05-02T18:29:59.417Z,69.8
2023-05-02T18:35:47.673Z,67.8
2023-05-02T18:41:32.266Z,63.7
2023-05-02T18:47:17.121Z,63.1
2023-05-02T18:53:01.749Z,52.7
2023-05-02T18:58:47.526Z,51.9
2023-05-02T19:04:33.314Z,49.5
2023-05-02T19:10:18.098Z,42.3
2023-05-02T19:16:03.144Z,43.6
2023-05-02T19:21:47.857Z,39.8
2023-05-02T19:27:32.759Z,35.8
2023-05-02T19:33:17.456Z,34.3
2023-05-02T19:39:02.033Z,38.5
2023-05-02T19:44:47.831Z,31.3
2023-05-02T19:50:32.855Z,29.5
2023-05-02T19:56:17.510Z,27.2
2023-05-02T20:02:02.093Z,25.9
2023-05-02T20:07:46.684Z,23.8
2023-05-02T20:13:31.470Z,24
2023-05-02T20:19:17.615Z,23.4
2023-05-02T20:25:02.900Z,22.3
2023-05-02T20:30:47.665Z,23.5
2023-05-02T20:36:32.366Z,21.6
2023-05-02T20:42:17.020Z,21.4
2023-05-02T20:48:02.221Z,21.5
2023-05-02T20:53:47.064Z,17.9
2023-05-02T20:59:31.744Z,16
2023-05-02T21:05:16.591Z,16.4
2023-05-02T21:11:01.369Z,14.1
2023-05-02T21:16:46.160Z,15.6
2023-05-02T21:22:30.688Z,12.1
2023-05-02T21:28:16.860Z,13.4
2023-05-02T21:34:01.376Z,12.6
2023-05-02T21:39:46.040Z,12.5
2023-05-02T21:45:30.692Z,11.8
2023-05-02T21:51:15.597Z,11.3
2023-05-02T21:57:00.280Z,10.5
2023-05-02T22:02:45.270Z,10.4
2023-05-02T22:08:29.992Z,10.7
2023-05-02T22:14:14.673Z,9.8
2023-05-02T22:19:59.371Z,12.2
2023-05-02T22:25:45.985Z,11.1
2023-05-02T22:31:30.816Z,8
2023-05-02T22:37:15.569Z,6.8
2023-05-02T22:43:00.311Z,8.5
2023-05-02T22:48:45.057Z,7.4
2023-05-02T22:54:29.969Z,8.6
2023-05-02T23:00:16.563Z,7.9
2023-05-02T23:06:01.509Z,7.2
2023-05-02T23:11:46.154Z,7.4
2023-05-02T23:17:31.100Z,6.7
2023-05-02T23:23:16.004Z,7.3
2023-05-02T23:29:00.796Z,7
2023-05-02T23:34:45.577Z,6.4
2023-05-02T23:40:30.580Z,6.3
2023-05-02T23:46:15.319Z,6.5
2023-05-02T23:52:00.231Z,7.3
2023-05-02T23:57:45.014Z,5.4
